Salem, OR (97301)

7:00 PM PDT on August 27, 2016 (GMT -0700)
Center & Cordon NE | | Change Station

Elev 210 ft 44.94 °N, 122.96 °W | Updated 25 seconds ago

Clear
Clear
74.8 °F
Feels Like 77 °F
N
7.7
Wind Variable Wind from NNW
Gusts 13.0 mph

Today
High -- | Low -- °F
--% Chance of Precip.
Yesterday
High -- | Low -- °F
Precip. -- in
Pressure 29.92 in
Visibility 10.0 miles
Clouds Clear
Heat Index 77 °F
Dew Point 58 °F
Humidity 55%
Rainfall 0.00 in
Snow Depth Not available.
6:28 AM 7:56 PM
Waning Crescent, 19% visible
METAR KSLE 280156Z AUTO 30007KT 10SM CLR 24/13 A2992 RMK AO2 SLP130 T02440128
Pressure 29.92 in
Visibility 10.0 miles
Clouds Clear
Heat Index 77 °F
Dew Point 58 °F
Humidity 55%
Rainfall 0.00 in
Snow Depth Not available.
6:28 AM 7:56 PM
Waning Crescent, 19% visible
METAR KSLE 280156Z AUTO 30007KT 10SM CLR 24/13 A2992 RMK AO2 SLP130 T02440128

10-Day Weather Forecast

Almanac

Astronomy

Aug. 27, 2016 Rise Set
Actual Time
Civil Twilight
Nautical Twilight
Astronomical Twilight
Moon
Length of Visible Light
Length of Day
Tomorrow will be .
, % of the Moon is Illuminated

Today's Extremes

State Highs State Lows

Community

WunderPhotos

Upload Photos

1,935,489 photos uploaded!

WunderBlog® & News

Nearby

Air Quality

  Air Quality AQ Index Pollutant
Not available.

Snow Depth

Station Depth Elevation

Earthquake Activity

City Distance Mag. Time & Date
Minimum magnitude displayed is 2.5.

Coastal Water Temperatures

Place Temperature

Stations

Nearby Weather Stations

Station Location Temp. Windchill Dew Point Humidity Wind Precip. Elev Updated Type
                   

Watches & Warnings

There are currently no watches in effect.